sensor_id;sensor_type;location;lat;lon;timestamp;P1;durP1;ratioP1;P2;durP2;ratioP2
15677;SDS011;7939;50.814;6.368;2024-02-28T00:00:44;52.15;;;26.80;;
15677;SDS011;7939;50.814;6.368;2024-02-28T00:03:11;61.85;;;26.75;;
15677;SDS011;7939;50.814;6.368;2024-02-28T00:05:38;58.05;;;25.30;;
15677;SDS011;7939;50.814;6.368;2024-02-28T00:08:05;51.17;;;25.40;;
15677;SDS011;7939;50.814;6.368;2024-02-28T00:10:32;54.75;;;28.67;;
15677;SDS011;7939;50.814;6.368;2024-02-28T00:12:59;63.88;;;28.60;;
15677;SDS011;7939;50.814;6.368;2024-02-28T00:15:26;58.10;;;27.98;;
15677;SDS011;7939;50.814;6.368;2024-02-28T00:17:54;55.28;;;26.77;;
15677;SDS011;7939;50.814;6.368;2024-02-28T00:20:21;56.25;;;27.70;;
15677;SDS011;7939;50.814;6.368;2024-02-28T00:22:49;58.60;;;27.77;;
15677;SDS011;7939;50.814;6.368;2024-02-28T00:25:16;59.88;;;27.88;;
15677;SDS011;7939;50.814;6.368;2024-02-28T00:27:43;60.03;;;28.92;;
15677;SDS011;7939;50.814;6.368;2024-02-28T00:30:10;61.00;;;26.92;;
15677;SDS011;7939;50.814;6.368;2024-02-28T00:32:37;56.55;;;28.52;;
15677;SDS011;7939;50.814;6.368;2024-02-28T00:35:05;51.10;;;26.20;;
15677;SDS011;7939;50.814;6.368;2024-02-28T00:37:33;58.05;;;28.20;;
15677;SDS011;7939;50.814;6.368;2024-02-28T00:39:59;55.13;;;27.77;;
15677;SDS011;7939;50.814;6.368;2024-02-28T00:42:26;59.72;;;28.00;;
15677;SDS011;7939;50.814;6.368;2024-02-28T00:44:53;57.55;;;28.23;;
15677;SDS011;7939;50.814;6.368;2024-02-28T00:47:20;59.72;;;26.88;;
15677;SDS011;7939;50.814;6.368;2024-02-28T00:49:47;61.05;;;28.60;;
15677;SDS011;7939;50.814;6.368;2024-02-28T00:52:15;59.63;;;26.02;;
15677;SDS011;7939;50.814;6.368;2024-02-28T00:54:41;56.10;;;26.77;;
15677;SDS011;7939;50.814;6.368;2024-02-28T00:57:08;56.63;;;27.05;;
15677;SDS011;7939;50.814;6.368;2024-02-28T00:59:35;59.72;;;27.25;;
15677;SDS011;7939;50.814;6.368;2024-02-28T01:02:02;62.03;;;28.63;;
15677;SDS011;7939;50.814;6.368;2024-02-28T01:04:29;60.03;;;29.10;;
15677;SDS011;7939;50.814;6.368;2024-02-28T01:06:56;60.53;;;27.38;;
15677;SDS011;7939;50.814;6.368;2024-02-28T01:09:24;57.25;;;26.42;;
15677;SDS011;7939;50.814;6.368;2024-02-28T01:11:51;55.63;;;26.90;;
15677;SDS011;7939;50.814;6.368;2024-02-28T01:14:17;57.95;;;26.58;;
15677;SDS011;7939;50.814;6.368;2024-02-28T01:16:44;59.13;;;25.80;;
15677;SDS011;7939;50.814;6.368;2024-02-28T01:19:11;49.35;;;25.48;;
15677;SDS011;7939;50.814;6.368;2024-02-28T01:21:38;60.90;;;26.00;;
15677;SDS011;7939;50.814;6.368;2024-02-28T01:24:05;50.03;;;23.77;;
15677;SDS011;7939;50.814;6.368;2024-02-28T01:26:33;53.63;;;25.67;;
15677;SDS011;7939;50.814;6.368;2024-02-28T01:29:00;54.35;;;25.98;;
15677;SDS011;7939;50.814;6.368;2024-02-28T01:31:26;49.88;;;25.40;;
15677;SDS011;7939;50.814;6.368;2024-02-28T01:33:53;54.90;;;26.08;;
15677;SDS011;7939;50.814;6.368;2024-02-28T01:36:20;58.45;;;26.42;;
15677;SDS011;7939;50.814;6.368;2024-02-28T01:38:47;54.08;;;25.85;;
15677;SDS011;7939;50.814;6.368;2024-02-28T01:41:14;47.17;;;22.98;;
15677;SDS011;7939;50.814;6.368;2024-02-28T01:43:42;51.65;;;24.15;;
15677;SDS011;7939;50.814;6.368;2024-02-28T01:46:12;51.95;;;24.13;;
15677;SDS011;7939;50.814;6.368;2024-02-28T01:48:47;51.17;;;23.25;;
15677;SDS011;7939;50.814;6.368;2024-02-28T01:51:14;47.35;;;22.85;;
15677;SDS011;7939;50.814;6.368;2024-02-28T01:53:42;46.45;;;22.52;;
15677;SDS011;7939;50.814;6.368;2024-02-28T01:56:09;45.40;;;22.70;;
15677;SDS011;7939;50.814;6.368;2024-02-28T01:58:36;45.80;;;21.65;;
15677;SDS011;7939;50.814;6.368;2024-02-28T02:01:04;48.05;;;23.98;;
15677;SDS011;7939;50.814;6.368;2024-02-28T02:03:32;51.08;;;23.27;;
15677;SDS011;7939;50.814;6.368;2024-02-28T02:06:00;52.22;;;23.88;;
15677;SDS011;7939;50.814;6.368;2024-02-28T02:08:27;47.60;;;24.50;;
15677;SDS011;7939;50.814;6.368;2024-02-28T02:10:54;45.55;;;21.45;;
15677;SDS011;7939;50.814;6.368;2024-02-28T02:13:21;49.58;;;22.38;;
15677;SDS011;7939;50.814;6.368;2024-02-28T02:15:48;47.15;;;22.48;;
15677;SDS011;7939;50.814;6.368;2024-02-28T02:18:16;46.47;;;21.27;;
15677;SDS011;7939;50.814;6.368;2024-02-28T02:20:43;42.08;;;21.30;;
15677;SDS011;7939;50.814;6.368;2024-02-28T02:23:14;40.72;;;20.00;;
15677;SDS011;7939;50.814;6.368;2024-02-28T02:25:44;38.78;;;20.08;;
15677;SDS011;7939;50.814;6.368;2024-02-28T02:28:11;40.15;;;19.73;;
15677;SDS011;7939;50.814;6.368;2024-02-28T02:30:38;36.72;;;18.58;;
15677;SDS011;7939;50.814;6.368;2024-02-28T02:33:04;35.92;;;18.00;;
15677;SDS011;7939;50.814;6.368;2024-02-28T02:35:31;32.95;;;17.33;;
15677;SDS011;7939;50.814;6.368;2024-02-28T02:37:59;36.60;;;17.70;;
15677;SDS011;7939;50.814;6.368;2024-02-28T02:40:27;29.45;;;16.42;;
15677;SDS011;7939;50.814;6.368;2024-02-28T02:42:54;32.63;;;16.73;;
15677;SDS011;7939;50.814;6.368;2024-02-28T02:45:21;32.13;;;16.73;;
15677;SDS011;7939;50.814;6.368;2024-02-28T02:47:47;32.08;;;17.00;;
15677;SDS011;7939;50.814;6.368;2024-02-28T02:50:14;31.50;;;16.65;;
15677;SDS011;7939;50.814;6.368;2024-02-28T02:52:41;33.67;;;16.45;;
15677;SDS011;7939;50.814;6.368;2024-02-28T02:55:07;33.90;;;17.83;;
15677;SDS011;7939;50.814;6.368;2024-02-28T02:57:36;30.42;;;15.02;;
15677;SDS011;7939;50.814;6.368;2024-02-28T03:00:03;30.85;;;16.38;;
15677;SDS011;7939;50.814;6.368;2024-02-28T03:02:34;30.75;;;16.80;;
15677;SDS011;7939;50.814;6.368;2024-02-28T03:05:02;29.17;;;15.50;;
15677;SDS011;7939;50.814;6.368;2024-02-28T03:07:29;29.60;;;15.52;;
15677;SDS011;7939;50.814;6.368;2024-02-28T03:09:55;25.98;;;14.65;;
15677;SDS011;7939;50.814;6.368;2024-02-28T03:12:22;27.55;;;14.38;;
15677;SDS011;7939;50.814;6.368;2024-02-28T03:14:50;25.25;;;13.63;;
15677;SDS011;7939;50.814;6.368;2024-02-28T03:17:17;25.90;;;14.60;;
15677;SDS011;7939;50.814;6.368;2024-02-28T03:19:44;24.27;;;14.20;;
15677;SDS011;7939;50.814;6.368;2024-02-28T03:22:10;26.38;;;14.43;;
15677;SDS011;7939;50.814;6.368;2024-02-28T03:24:37;25.73;;;14.27;;
15677;SDS011;7939;50.814;6.368;2024-02-28T03:27:04;25.05;;;12.63;;
15677;SDS011;7939;50.814;6.368;2024-02-28T03:29:31;29.08;;;14.73;;
15677;SDS011;7939;50.814;6.368;2024-02-28T03:31:59;24.85;;;14.23;;
15677;SDS011;7939;50.814;6.368;2024-02-28T03:34:25;24.50;;;13.13;;
15677;SDS011;7939;50.814;6.368;2024-02-28T03:36:52;25.33;;;13.27;;
15677;SDS011;7939;50.814;6.368;2024-02-28T03:39:19;25.38;;;13.32;;
15677;SDS011;7939;50.814;6.368;2024-02-28T03:41:45;22.10;;;12.98;;
15677;SDS011;7939;50.814;6.368;2024-02-28T03:44:12;25.38;;;14.50;;
15677;SDS011;7939;50.814;6.368;2024-02-28T03:46:39;23.00;;;14.02;;
15677;SDS011;7939;50.814;6.368;2024-02-28T03:49:07;26.40;;;13.10;;
15677;SDS011;7939;50.814;6.368;2024-02-28T03:51:38;24.23;;;13.48;;
15677;SDS011;7939;50.814;6.368;2024-02-28T03:54:05;22.45;;;12.73;;
15677;SDS011;7939;50.814;6.368;2024-02-28T03:56:32;20.88;;;12.15;;
15677;SDS011;7939;50.814;6.368;2024-02-28T03:59:00;23.02;;;12.50;;
15677;SDS011;7939;50.814;6.368;2024-02-28T04:01:29;22.95;;;12.35;;
15677;SDS011;7939;50.814;6.368;2024-02-28T04:03:56;21.85;;;11.73;;
15677;SDS011;7939;50.814;6.368;2024-02-28T04:06:24;22.02;;;12.00;;
15677;SDS011;7939;50.814;6.368;2024-02-28T04:08:51;22.20;;;12.27;;
15677;SDS011;7939;50.814;6.368;2024-02-28T04:11:17;24.40;;;12.57;;
15677;SDS011;7939;50.814;6.368;2024-02-28T04:13:44;28.00;;;13.85;;
15677;SDS011;7939;50.814;6.368;2024-02-28T04:16:11;26.75;;;13.82;;
15677;SDS011;7939;50.814;6.368;2024-02-28T04:18:38;29.92;;;14.43;;
15677;SDS011;7939;50.814;6.368;2024-02-28T04:21:06;32.90;;;14.93;;
15677;SDS011;7939;50.814;6.368;2024-02-28T04:23:34;30.75;;;15.02;;
15677;SDS011;7939;50.814;6.368;2024-02-28T04:26:01;28.60;;;15.63;;
15677;SDS011;7939;50.814;6.368;2024-02-28T04:28:28;31.55;;;15.10;;
15677;SDS011;7939;50.814;6.368;2024-02-28T04:30:55;28.40;;;15.27;;
15677;SDS011;7939;50.814;6.368;2024-02-28T04:33:22;36.88;;;17.38;;
15677;SDS011;7939;50.814;6.368;2024-02-28T04:35:49;35.95;;;16.30;;
15677;SDS011;7939;50.814;6.368;2024-02-28T04:38:15;34.10;;;16.20;;
15677;SDS011;7939;50.814;6.368;2024-02-28T04:40:43;35.60;;;16.33;;
15677;SDS011;7939;50.814;6.368;2024-02-28T04:43:10;40.33;;;18.27;;
15677;SDS011;7939;50.814;6.368;2024-02-28T04:45:37;33.63;;;16.40;;
15677;SDS011;7939;50.814;6.368;2024-02-28T04:48:04;36.45;;;17.17;;
15677;SDS011;7939;50.814;6.368;2024-02-28T04:50:32;39.33;;;18.27;;
15677;SDS011;7939;50.814;6.368;2024-02-28T04:52:58;47.38;;;20.10;;
15677;SDS011;7939;50.814;6.368;2024-02-28T04:55:25;46.92;;;20.30;;
15677;SDS011;7939;50.814;6.368;2024-02-28T04:57:53;43.58;;;18.55;;
15677;SDS011;7939;50.814;6.368;2024-02-28T05:00:20;43.35;;;20.52;;
15677;SDS011;7939;50.814;6.368;2024-02-28T05:02:46;46.30;;;20.83;;
15677;SDS011;7939;50.814;6.368;2024-02-28T05:05:13;50.85;;;23.08;;
15677;SDS011;7939;50.814;6.368;2024-02-28T05:07:40;47.83;;;21.52;;
15677;SDS011;7939;50.814;6.368;2024-02-28T05:10:07;47.17;;;20.83;;
15677;SDS011;7939;50.814;6.368;2024-02-28T05:12:34;46.22;;;20.67;;
15677;SDS011;7939;50.814;6.368;2024-02-28T05:15:02;47.40;;;21.05;;
15677;SDS011;7939;50.814;6.368;2024-02-28T05:17:31;44.17;;;20.38;;
15677;SDS011;7939;50.814;6.368;2024-02-28T05:19:58;62.00;;;30.48;;
15677;SDS011;7939;50.814;6.368;2024-02-28T05:22:24;46.83;;;22.65;;
15677;SDS011;7939;50.814;6.368;2024-02-28T05:24:51;53.65;;;22.40;;
15677;SDS011;7939;50.814;6.368;2024-02-28T05:27:18;46.75;;;22.98;;
15677;SDS011;7939;50.814;6.368;2024-02-28T05:29:45;46.95;;;22.45;;
15677;SDS011;7939;50.814;6.368;2024-02-28T05:32:14;47.72;;;20.65;;
15677;SDS011;7939;50.814;6.368;2024-02-28T05:34:42;42.03;;;20.33;;
15677;SDS011;7939;50.814;6.368;2024-02-28T05:37:09;43.45;;;21.42;;
15677;SDS011;7939;50.814;6.368;2024-02-28T05:39:35;41.20;;;20.20;;
15677;SDS011;7939;50.814;6.368;2024-02-28T05:42:02;41.22;;;19.83;;
15677;SDS011;7939;50.814;6.368;2024-02-28T05:44:29;39.40;;;19.80;;
15677;SDS011;7939;50.814;6.368;2024-02-28T05:46:56;43.33;;;19.08;;
15677;SDS011;7939;50.814;6.368;2024-02-28T05:49:24;34.22;;;17.40;;
15677;SDS011;7939;50.814;6.368;2024-02-28T05:51:51;39.67;;;19.42;;
15677;SDS011;7939;50.814;6.368;2024-02-28T05:54:19;46.70;;;21.58;;
15677;SDS011;7939;50.814;6.368;2024-02-28T05:56:45;39.42;;;19.52;;
15677;SDS011;7939;50.814;6.368;2024-02-28T05:59:12;36.30;;;17.40;;
15677;SDS011;7939;50.814;6.368;2024-02-28T06:01:39;39.17;;;18.73;;
15677;SDS011;7939;50.814;6.368;2024-02-28T06:04:05;39.50;;;18.58;;
15677;SDS011;7939;50.814;6.368;2024-02-28T06:06:33;42.58;;;20.25;;
15677;SDS011;7939;50.814;6.368;2024-02-28T06:09:00;37.85;;;18.48;;
15677;SDS011;7939;50.814;6.368;2024-02-28T06:11:27;41.42;;;18.80;;
15677;SDS011;7939;50.814;6.368;2024-02-28T06:13:54;40.05;;;20.45;;
15677;SDS011;7939;50.814;6.368;2024-02-28T06:16:21;41.30;;;19.95;;
15677;SDS011;7939;50.814;6.368;2024-02-28T06:18:48;37.50;;;18.48;;
15677;SDS011;7939;50.814;6.368;2024-02-28T06:21:15;36.80;;;18.20;;
15677;SDS011;7939;50.814;6.368;2024-02-28T06:23:43;39.90;;;19.48;;
15677;SDS011;7939;50.814;6.368;2024-02-28T06:26:10;40.20;;;19.17;;
15677;SDS011;7939;50.814;6.368;2024-02-28T06:28:41;40.55;;;18.88;;
15677;SDS011;7939;50.814;6.368;2024-02-28T06:31:14;39.05;;;18.23;;
15677;SDS011;7939;50.814;6.368;2024-02-28T06:33:41;37.90;;;19.27;;
15677;SDS011;7939;50.814;6.368;2024-02-28T06:36:08;34.00;;;17.83;;
15677;SDS011;7939;50.814;6.368;2024-02-28T06:38:35;36.92;;;18.95;;
15677;SDS011;7939;50.814;6.368;2024-02-28T06:41:03;37.83;;;19.15;;
15677;SDS011;7939;50.814;6.368;2024-02-28T06:43:32;38.35;;;17.73;;
15677;SDS011;7939;50.814;6.368;2024-02-28T06:45:59;40.33;;;19.35;;
15677;SDS011;7939;50.814;6.368;2024-02-28T06:48:27;32.92;;;17.58;;
15677;SDS011;7939;50.814;6.368;2024-02-28T06:50:54;33.38;;;17.58;;
15677;SDS011;7939;50.814;6.368;2024-02-28T06:53:20;37.70;;;17.77;;
15677;SDS011;7939;50.814;6.368;2024-02-28T06:55:47;36.03;;;17.75;;
15677;SDS011;7939;50.814;6.368;2024-02-28T06:58:15;34.85;;;18.48;;
15677;SDS011;7939;50.814;6.368;2024-02-28T07:00:42;35.22;;;17.30;;
15677;SDS011;7939;50.814;6.368;2024-02-28T07:03:09;37.47;;;17.45;;
15677;SDS011;7939;50.814;6.368;2024-02-28T07:05:36;35.58;;;18.30;;
15677;SDS011;7939;50.814;6.368;2024-02-28T07:08:03;38.05;;;18.23;;
15677;SDS011;7939;50.814;6.368;2024-02-28T07:10:30;36.33;;;18.60;;
15677;SDS011;7939;50.814;6.368;2024-02-28T07:12:56;38.83;;;19.10;;
15677;SDS011;7939;50.814;6.368;2024-02-28T07:15:25;43.72;;;20.10;;
15677;SDS011;7939;50.814;6.368;2024-02-28T07:17:51;42.42;;;22.10;;
15677;SDS011;7939;50.814;6.368;2024-02-28T07:20:18;43.70;;;21.70;;
15677;SDS011;7939;50.814;6.368;2024-02-28T07:22:45;42.88;;;21.73;;
15677;SDS011;7939;50.814;6.368;2024-02-28T07:25:12;38.90;;;20.05;;
15677;SDS011;7939;50.814;6.368;2024-02-28T07:27:39;41.42;;;19.85;;
15677;SDS011;7939;50.814;6.368;2024-02-28T07:30:06;39.33;;;20.48;;
15677;SDS011;7939;50.814;6.368;2024-02-28T07:32:35;43.50;;;20.67;;
15677;SDS011;7939;50.814;6.368;2024-02-28T07:35:02;39.22;;;19.40;;
15677;SDS011;7939;50.814;6.368;2024-02-28T07:37:29;37.70;;;19.23;;
15677;SDS011;7939;50.814;6.368;2024-02-28T07:39:56;39.47;;;18.90;;
15677;SDS011;7939;50.814;6.368;2024-02-28T07:42:22;39.65;;;18.42;;
15677;SDS011;7939;50.814;6.368;2024-02-28T07:44:49;34.70;;;18.20;;
15677;SDS011;7939;50.814;6.368;2024-02-28T07:47:18;33.83;;;17.52;;
15677;SDS011;7939;50.814;6.368;2024-02-28T07:49:46;35.72;;;18.55;;
15677;SDS011;7939;50.814;6.368;2024-02-28T07:52:13;36.70;;;17.17;;
15677;SDS011;7939;50.814;6.368;2024-02-28T07:54:41;35.20;;;17.20;;
15677;SDS011;7939;50.814;6.368;2024-02-28T07:57:08;33.17;;;18.27;;
15677;SDS011;7939;50.814;6.368;2024-02-28T07:59:38;35.83;;;17.08;;
15677;SDS011;7939;50.814;6.368;2024-02-28T08:02:05;43.58;;;24.20;;
15677;SDS011;7939;50.814;6.368;2024-02-28T08:04:32;42.15;;;24.15;;
15677;SDS011;7939;50.814;6.368;2024-02-28T08:07:00;29.98;;;16.77;;
15677;SDS011;7939;50.814;6.368;2024-02-28T08:09:28;31.95;;;17.02;;
15677;SDS011;7939;50.814;6.368;2024-02-28T08:11:55;31.80;;;15.75;;
15677;SDS011;7939;50.814;6.368;2024-02-28T08:14:23;31.95;;;16.50;;
15677;SDS011;7939;50.814;6.368;2024-02-28T08:16:49;34.70;;;17.35;;
15677;SDS011;7939;50.814;6.368;2024-02-28T08:19:16;31.00;;;16.60;;
15677;SDS011;7939;50.814;6.368;2024-02-28T08:21:43;31.80;;;16.25;;
15677;SDS011;7939;50.814;6.368;2024-02-28T08:24:12;34.38;;;16.00;;
15677;SDS011;7939;50.814;6.368;2024-02-28T08:26:39;31.50;;;15.32;;
15677;SDS011;7939;50.814;6.368;2024-02-28T08:29:07;28.50;;;14.90;;
15677;SDS011;7939;50.814;6.368;2024-02-28T08:31:39;27.75;;;15.65;;
15677;SDS011;7939;50.814;6.368;2024-02-28T08:34:06;31.15;;;14.70;;
15677;SDS011;7939;50.814;6.368;2024-02-28T08:36:32;28.40;;;14.65;;
15677;SDS011;7939;50.814;6.368;2024-02-28T08:38:59;29.88;;;14.48;;
15677;SDS011;7939;50.814;6.368;2024-02-28T08:41:27;27.73;;;13.68;;
15677;SDS011;7939;50.814;6.368;2024-02-28T08:43:54;27.73;;;13.63;;
15677;SDS011;7939;50.814;6.368;2024-02-28T08:46:20;27.55;;;13.88;;
15677;SDS011;7939;50.814;6.368;2024-02-28T08:48:47;27.95;;;13.95;;
15677;SDS011;7939;50.814;6.368;2024-02-28T08:51:14;25.23;;;13.23;;
15677;SDS011;7939;50.814;6.368;2024-02-28T08:53:40;27.38;;;14.15;;
15677;SDS011;7939;50.814;6.368;2024-02-28T08:56:07;27.42;;;14.20;;
15677;SDS011;7939;50.814;6.368;2024-02-28T08:58:35;27.80;;;14.20;;
15677;SDS011;7939;50.814;6.368;2024-02-28T09:01:02;27.95;;;14.52;;
15677;SDS011;7939;50.814;6.368;2024-02-28T09:03:30;31.65;;;15.82;;
15677;SDS011;7939;50.814;6.368;2024-02-28T09:05:57;27.55;;;14.02;;
15677;SDS011;7939;50.814;6.368;2024-02-28T09:08:23;28.75;;;13.25;;
15677;SDS011;7939;50.814;6.368;2024-02-28T09:10:50;25.13;;;13.40;;
15677;SDS011;7939;50.814;6.368;2024-02-28T09:13:17;25.17;;;12.43;;
15677;SDS011;7939;50.814;6.368;2024-02-28T09:15:46;24.33;;;12.02;;
15677;SDS011;7939;50.814;6.368;2024-02-28T09:18:13;25.80;;;13.02;;
15677;SDS011;7939;50.814;6.368;2024-02-28T09:20:40;24.58;;;12.23;;
15677;SDS011;7939;50.814;6.368;2024-02-28T09:23:06;27.27;;;14.23;;
15677;SDS011;7939;50.814;6.368;2024-02-28T09:25:33;24.17;;;12.32;;
15677;SDS011;7939;50.814;6.368;2024-02-28T09:28:00;28.83;;;14.10;;
15677;SDS011;7939;50.814;6.368;2024-02-28T09:30:28;28.88;;;14.32;;
15677;SDS011;7939;50.814;6.368;2024-02-28T09:32:56;22.63;;;12.77;;
15677;SDS011;7939;50.814;6.368;2024-02-28T09:35:23;26.20;;;12.68;;
15677;SDS011;7939;50.814;6.368;2024-02-28T09:37:49;31.95;;;15.90;;
15677;SDS011;7939;50.814;6.368;2024-02-28T09:40:16;35.83;;;17.00;;
15677;SDS011;7939;50.814;6.368;2024-02-28T09:42:42;31.65;;;16.25;;
15677;SDS011;7939;50.814;6.368;2024-02-28T09:45:09;29.80;;;17.13;;
15677;SDS011;7939;50.814;6.368;2024-02-28T09:47:38;22.40;;;12.70;;
15677;SDS011;7939;50.814;6.368;2024-02-28T09:50:07;22.38;;;12.00;;
15677;SDS011;7939;50.814;6.368;2024-02-28T09:52:34;20.80;;;11.88;;
15677;SDS011;7939;50.814;6.368;2024-02-28T09:55:01;21.63;;;11.70;;
15677;SDS011;7939;50.814;6.368;2024-02-28T09:57:28;21.67;;;11.68;;
15677;SDS011;7939;50.814;6.368;2024-02-28T09:59:56;21.27;;;11.15;;
15677;SDS011;7939;50.814;6.368;2024-02-28T10:02:25;23.45;;;12.48;;
15677;SDS011;7939;50.814;6.368;2024-02-28T10:04:54;20.45;;;10.48;;
15677;SDS011;7939;50.814;6.368;2024-02-28T10:07:24;32.20;;;15.20;;
15677;SDS011;7939;50.814;6.368;2024-02-28T10:09:50;26.33;;;14.00;;
15677;SDS011;7939;50.814;6.368;2024-02-28T10:12:17;26.27;;;13.30;;
15677;SDS011;7939;50.814;6.368;2024-02-28T10:14:44;21.27;;;11.65;;
15677;SDS011;7939;50.814;6.368;2024-02-28T10:17:11;24.42;;;14.00;;
15677;SDS011;7939;50.814;6.368;2024-02-28T10:19:38;21.52;;;11.77;;
15677;SDS011;7939;50.814;6.368;2024-02-28T10:22:05;26.63;;;12.93;;
15677;SDS011;7939;50.814;6.368;2024-02-28T10:24:34;26.08;;;14.02;;
15677;SDS011;7939;50.814;6.368;2024-02-28T10:27:02;26.80;;;13.70;;
15677;SDS011;7939;50.814;6.368;2024-02-28T10:29:29;20.90;;;12.00;;
15677;SDS011;7939;50.814;6.368;2024-02-28T10:31:57;21.50;;;11.07;;
15677;SDS011;7939;50.814;6.368;2024-02-28T10:34:24;22.85;;;12.18;;
15677;SDS011;7939;50.814;6.368;2024-02-28T10:36:51;19.60;;;10.70;;
15677;SDS011;7939;50.814;6.368;2024-02-28T10:39:18;19.88;;;11.48;;
15677;SDS011;7939;50.814;6.368;2024-02-28T10:41:49;19.40;;;10.25;;
15677;SDS011;7939;50.814;6.368;2024-02-28T10:44:18;24.48;;;14.13;;
15677;SDS011;7939;50.814;6.368;2024-02-28T10:46:48;30.77;;;14.30;;
15677;SDS011;7939;50.814;6.368;2024-02-28T10:49:16;21.98;;;12.75;;
15677;SDS011;7939;50.814;6.368;2024-02-28T10:51:44;20.13;;;11.55;;
15677;SDS011;7939;50.814;6.368;2024-02-28T10:54:12;24.30;;;13.35;;
15677;SDS011;7939;50.814;6.368;2024-02-28T10:56:39;24.33;;;12.85;;
15677;SDS011;7939;50.814;6.368;2024-02-28T10:59:08;24.33;;;14.13;;
15677;SDS011;7939;50.814;6.368;2024-02-28T11:01:37;20.88;;;11.63;;
15677;SDS011;7939;50.814;6.368;2024-02-28T11:04:07;17.92;;;10.23;;
15677;SDS011;7939;50.814;6.368;2024-02-28T11:06:34;24.17;;;13.27;;
15677;SDS011;7939;50.814;6.368;2024-02-28T11:09:00;21.60;;;12.63;;
15677;SDS011;7939;50.814;6.368;2024-02-28T11:11:29;22.70;;;12.18;;
15677;SDS011;7939;50.814;6.368;2024-02-28T11:13:58;24.60;;;12.73;;
15677;SDS011;7939;50.814;6.368;2024-02-28T11:16:27;21.35;;;11.52;;
15677;SDS011;7939;50.814;6.368;2024-02-28T11:18:55;21.30;;;12.70;;
15677;SDS011;7939;50.814;6.368;2024-02-28T11:21:25;27.75;;;13.38;;
15677;SDS011;7939;50.814;6.368;2024-02-28T11:23:52;21.17;;;12.38;;
15677;SDS011;7939;50.814;6.368;2024-02-28T11:26:23;18.05;;;11.02;;
15677;SDS011;7939;50.814;6.368;2024-02-28T11:28:50;19.40;;;11.13;;
15677;SDS011;7939;50.814;6.368;2024-02-28T11:31:17;21.00;;;11.00;;
15677;SDS011;7939;50.814;6.368;2024-02-28T11:33:45;16.00;;;9.85;;
15677;SDS011;7939;50.814;6.368;2024-02-28T11:36:12;21.52;;;10.15;;
15677;SDS011;7939;50.814;6.368;2024-02-28T11:38:39;16.02;;;9.48;;
15677;SDS011;7939;50.814;6.368;2024-02-28T11:41:06;16.33;;;9.57;;
15677;SDS011;7939;50.814;6.368;2024-02-28T11:43:34;14.15;;;8.15;;
15677;SDS011;7939;50.814;6.368;2024-02-28T11:46:00;15.57;;;9.07;;
15677;SDS011;7939;50.814;6.368;2024-02-28T11:48:29;15.60;;;9.02;;
15677;SDS011;7939;50.814;6.368;2024-02-28T11:50:59;13.80;;;6.65;;
15677;SDS011;7939;50.814;6.368;2024-02-28T11:53:26;9.45;;;5.80;;
15677;SDS011;7939;50.814;6.368;2024-02-28T11:55:53;8.98;;;4.60;;
15677;SDS011;7939;50.814;6.368;2024-02-28T11:58:21;7.78;;;4.47;;
15677;SDS011;7939;50.814;6.368;2024-02-28T12:00:48;6.20;;;3.88;;
15677;SDS011;7939;50.814;6.368;2024-02-28T12:03:14;6.63;;;4.22;;
15677;SDS011;7939;50.814;6.368;2024-02-28T12:05:45;17.88;;;8.77;;
15677;SDS011;7939;50.814;6.368;2024-02-28T12:08:13;16.50;;;10.00;;
15677;SDS011;7939;50.814;6.368;2024-02-28T12:10:40;17.48;;;9.23;;
15677;SDS011;7939;50.814;6.368;2024-02-28T12:13:07;15.80;;;8.75;;
15677;SDS011;7939;50.814;6.368;2024-02-28T12:15:34;13.00;;;7.53;;
15677;SDS011;7939;50.814;6.368;2024-02-28T12:18:06;12.60;;;7.63;;
15677;SDS011;7939;50.814;6.368;2024-02-28T12:20:34;15.43;;;8.50;;
15677;SDS011;7939;50.814;6.368;2024-02-28T12:23:02;14.15;;;7.88;;
15677;SDS011;7939;50.814;6.368;2024-02-28T12:25:30;13.70;;;8.20;;
15677;SDS011;7939;50.814;6.368;2024-02-28T12:27:57;14.23;;;8.50;;
15677;SDS011;7939;50.814;6.368;2024-02-28T12:30:24;13.35;;;7.95;;
15677;SDS011;7939;50.814;6.368;2024-02-28T12:32:50;14.98;;;8.77;;
15677;SDS011;7939;50.814;6.368;2024-02-28T12:35:17;16.42;;;8.52;;
15677;SDS011;7939;50.814;6.368;2024-02-28T12:37:44;11.00;;;6.60;;
15677;SDS011;7939;50.814;6.368;2024-02-28T12:40:10;12.35;;;7.55;;
15677;SDS011;7939;50.814;6.368;2024-02-28T12:42:40;14.02;;;7.95;;
15677;SDS011;7939;50.814;6.368;2024-02-28T12:45:07;14.80;;;7.30;;
15677;SDS011;7939;50.814;6.368;2024-02-28T12:47:34;13.65;;;7.53;;
15677;SDS011;7939;50.814;6.368;2024-02-28T12:50:02;12.45;;;7.10;;
15677;SDS011;7939;50.814;6.368;2024-02-28T12:52:32;13.65;;;7.05;;
15677;SDS011;7939;50.814;6.368;2024-02-28T12:54:58;9.55;;;5.38;;
15677;SDS011;7939;50.814;6.368;2024-02-28T12:57:26;10.23;;;6.45;;
15677;SDS011;7939;50.814;6.368;2024-02-28T12:59:54;16.10;;;8.25;;
15677;SDS011;7939;50.814;6.368;2024-02-28T13:02:20;3.45;;;2.17;;
15677;SDS011;7939;50.814;6.368;2024-02-28T13:04:47;2.58;;;1.95;;
15677;SDS011;7939;50.814;6.368;2024-02-28T13:07:14;1.60;;;1.50;;
15677;SDS011;7939;50.814;6.368;2024-02-28T13:09:41;5.43;;;3.00;;
15677;SDS011;7939;50.814;6.368;2024-02-28T13:12:08;3.67;;;2.50;;
15677;SDS011;7939;50.814;6.368;2024-02-28T13:14:35;2.85;;;1.95;;
15677;SDS011;7939;50.814;6.368;2024-02-28T13:17:03;1.77;;;1.45;;
15677;SDS011;7939;50.814;6.368;2024-02-28T13:19:30;2.67;;;1.70;;
15677;SDS011;7939;50.814;6.368;2024-02-28T13:21:57;3.13;;;1.70;;
15677;SDS011;7939;50.814;6.368;2024-02-28T13:24:24;2.00;;;1.77;;
15677;SDS011;7939;50.814;6.368;2024-02-28T13:26:51;4.03;;;2.45;;
15677;SDS011;7939;50.814;6.368;2024-02-28T13:29:17;2.10;;;1.67;;
15677;SDS011;7939;50.814;6.368;2024-02-28T13:31:43;3.38;;;2.13;;
15677;SDS011;7939;50.814;6.368;2024-02-28T13:34:11;2.80;;;1.95;;
15677;SDS011;7939;50.814;6.368;2024-02-28T13:36:38;10.05;;;5.13;;
15677;SDS011;7939;50.814;6.368;2024-02-28T13:39:08;16.40;;;7.30;;
15677;SDS011;7939;50.814;6.368;2024-02-28T13:41:36;9.25;;;5.90;;
15677;SDS011;7939;50.814;6.368;2024-02-28T13:44:03;13.50;;;6.70;;
15677;SDS011;7939;50.814;6.368;2024-02-28T13:46:30;11.98;;;5.65;;
15677;SDS011;7939;50.814;6.368;2024-02-28T13:48:57;8.52;;;5.22;;
15677;SDS011;7939;50.814;6.368;2024-02-28T13:51:25;11.55;;;6.60;;
15677;SDS011;7939;50.814;6.368;2024-02-28T13:53:52;7.43;;;5.22;;
15677;SDS011;7939;50.814;6.368;2024-02-28T13:56:19;11.15;;;5.85;;
15677;SDS011;7939;50.814;6.368;2024-02-28T13:58:46;11.13;;;5.93;;
15677;SDS011;7939;50.814;6.368;2024-02-28T14:01:13;11.00;;;5.75;;
15677;SDS011;7939;50.814;6.368;2024-02-28T14:03:39;8.73;;;5.72;;
15677;SDS011;7939;50.814;6.368;2024-02-28T14:06:06;12.10;;;5.53;;
15677;SDS011;7939;50.814;6.368;2024-02-28T14:08:34;9.40;;;5.40;;
15677;SDS011;7939;50.814;6.368;2024-02-28T14:11:01;10.20;;;4.65;;
15677;SDS011;7939;50.814;6.368;2024-02-28T14:13:28;8.13;;;5.10;;
15677;SDS011;7939;50.814;6.368;2024-02-28T14:15:54;9.63;;;4.65;;
15677;SDS011;7939;50.814;6.368;2024-02-28T14:18:21;8.32;;;4.30;;
15677;SDS011;7939;50.814;6.368;2024-02-28T14:20:48;7.07;;;4.30;;
15677;SDS011;7939;50.814;6.368;2024-02-28T14:23:14;8.32;;;4.88;;
15677;SDS011;7939;50.814;6.368;2024-02-28T14:25:44;7.88;;;4.80;;
15677;SDS011;7939;50.814;6.368;2024-02-28T14:28:10;7.55;;;4.78;;
15677;SDS011;7939;50.814;6.368;2024-02-28T14:30:38;8.80;;;4.88;;
15677;SDS011;7939;50.814;6.368;2024-02-28T14:33:04;5.18;;;3.47;;
15677;SDS011;7939;50.814;6.368;2024-02-28T14:35:31;9.23;;;4.68;;
15677;SDS011;7939;50.814;6.368;2024-02-28T14:37:58;9.98;;;4.25;;